createdAt,value
2022-08-25T00:00:22.257Z,12.10
2022-08-25T00:02:55.237Z,12.40
2022-08-25T00:05:32.259Z,12.43
2022-08-25T00:08:03.509Z,12.53
2022-08-25T00:10:35.855Z,12.43
2022-08-25T00:13:06.860Z,12.47
2022-08-25T00:15:36.295Z,12.80
2022-08-25T00:18:11.499Z,11.50
2022-08-25T00:20:49.329Z,11.53
2022-08-25T00:23:19.316Z,10.53
2022-08-25T00:25:50.906Z,11.10
2022-08-25T00:28:20.082Z,9.53
2022-08-25T00:30:49.665Z,10.37
2022-08-25T00:33:19.827Z,10.80
2022-08-25T00:35:48.832Z,10.40
2022-08-25T00:38:17.907Z,11.33
2022-08-25T00:41:05.642Z,10.83
2022-08-25T00:43:45.614Z,11.37
2022-08-25T00:46:18.094Z,10.77
2022-08-25T00:48:51.948Z,11.37
2022-08-25T00:51:33.621Z,11.50
2022-08-25T00:54:04.166Z,11.87
2022-08-25T00:56:34.627Z,10.90
2022-08-25T00:59:06.646Z,11.20
2022-08-25T01:01:36.115Z,11.47
2022-08-25T01:04:05.382Z,11.30
2022-08-25T01:06:38.370Z,10.03
2022-08-25T01:09:08.513Z,10.63
2022-08-25T01:11:38.579Z,11.13
2022-08-25T01:14:12.008Z,10.37
2022-08-25T01:16:41.642Z,10.40
2022-08-25T01:19:15.391Z,10.77
2022-08-25T01:21:49.086Z,10.37
2022-08-25T01:24:25.845Z,10.90
2022-08-25T01:26:55.434Z,10.17
2022-08-25T01:29:26.346Z,10.77
2022-08-25T01:31:58.420Z,10.17
2022-08-25T01:34:29.693Z,10.40
2022-08-25T01:37:01.428Z,10.40
2022-08-25T01:39:33.937Z,11.00
2022-08-25T01:42:19.182Z,12.03
2022-08-25T01:44:49.694Z,12.10
2022-08-25T01:47:18.814Z,12.37
2022-08-25T01:49:47.837Z,12.37
2022-08-25T01:52:22.129Z,11.87
2022-08-25T01:54:51.268Z,11.70
2022-08-25T01:57:20.327Z,11.37
2022-08-25T01:59:49.524Z,11.53
2022-08-25T02:02:18.715Z,11.57
2022-08-25T02:04:48.815Z,11.53
2022-08-25T02:07:21.375Z,12.33
2022-08-25T02:09:50.576Z,11.53
2022-08-25T02:12:20.162Z,11.17
2022-08-25T02:14:49.457Z,11.13
2022-08-25T02:17:18.510Z,11.43
2022-08-25T02:19:47.736Z,11.80
2022-08-25T02:22:17.358Z,11.53
2022-08-25T02:24:48.046Z,12.20
2022-08-25T02:27:17.498Z,12.17
2022-08-25T02:29:46.639Z,12.90
2022-08-25T02:32:15.618Z,13.70
2022-08-25T02:34:44.831Z,12.33
2022-08-25T02:37:14.165Z,13.17
2022-08-25T02:39:43.687Z,12.20
2022-08-25T02:42:14.600Z,12.50
2022-08-25T02:44:43.635Z,11.93
2022-08-25T02:47:12.518Z,12.77
2022-08-25T02:49:41.412Z,12.33
2022-08-25T02:52:11.058Z,11.73
2022-08-25T02:54:40.015Z,11.33
2022-08-25T02:57:10.548Z,12.57
2022-08-25T02:59:41.063Z,11.87
2022-08-25T03:02:09.935Z,11.57
2022-08-25T03:04:39.553Z,11.13
2022-08-25T03:07:08.690Z,10.93
2022-08-25T03:09:41.526Z,11.17
2022-08-25T03:12:10.991Z,10.93
2022-08-25T03:14:42.026Z,11.27
2022-08-25T03:17:12.232Z,11.47
2022-08-25T03:19:41.927Z,12.70
2022-08-25T03:22:10.857Z,10.87
2022-08-25T03:24:39.859Z,11.90
2022-08-25T03:27:07.776Z,11.37
2022-08-25T03:29:36.669Z,11.43
2022-08-25T03:32:07.616Z,11.97
2022-08-25T03:34:36.552Z,11.87
2022-08-25T03:37:08.478Z,13.17
2022-08-25T03:39:37.696Z,12.07
2022-08-25T03:42:08.273Z,12.93
2022-08-25T03:44:37.142Z,12.30
2022-08-25T03:47:07.935Z,12.23
2022-08-25T03:49:37.175Z,11.97
2022-08-25T03:52:06.573Z,11.67
2022-08-25T03:54:35.667Z,11.67
2022-08-25T03:57:06.407Z,11.83
2022-08-25T03:59:38.305Z,12.27
2022-08-25T04:02:09.685Z,12.63
2022-08-25T04:04:38.972Z,11.57
2022-08-25T04:07:08.027Z,11.17
2022-08-25T04:09:37.749Z,11.33
2022-08-25T04:12:07.125Z,11.40
2022-08-25T04:14:36.887Z,10.87
2022-08-25T04:17:06.258Z,11.20
2022-08-25T04:19:37.265Z,11.87
2022-08-25T04:22:06.380Z,11.20
2022-08-25T04:24:35.803Z,11.20
2022-08-25T04:27:05.501Z,12.60
2022-08-25T04:29:36.026Z,12.80
2022-08-25T04:32:05.393Z,13.47
2022-08-25T04:34:35.902Z,13.30
2022-08-25T04:37:06.577Z,13.70
2022-08-25T04:39:35.688Z,12.83
2022-08-25T04:42:05.847Z,13.67
2022-08-25T04:44:34.935Z,13.33
2022-08-25T04:47:04.291Z,12.43
2022-08-25T04:49:33.172Z,12.03
2022-08-25T04:52:03.663Z,11.77
2022-08-25T04:54:37.477Z,12.30
2022-08-25T04:57:06.859Z,12.03
2022-08-25T04:59:35.933Z,11.20
2022-08-25T05:02:06.711Z,12.20
2022-08-25T05:04:38.652Z,12.37
2022-08-25T05:07:09.394Z,12.17
2022-08-25T05:09:38.370Z,12.70
2022-08-25T05:12:07.808Z,13.20
2022-08-25T05:14:39.549Z,13.10
2022-08-25T05:17:08.379Z,13.20
2022-08-25T05:19:37.412Z,12.57
2022-08-25T05:22:06.762Z,12.60
2022-08-25T05:24:37.365Z,13.60
2022-08-25T05:27:06.743Z,13.03
2022-08-25T05:29:35.790Z,13.37
2022-08-25T05:32:05.338Z,12.63
2022-08-25T05:34:34.314Z,14.00
2022-08-25T05:37:04.520Z,13.17
2022-08-25T05:39:33.809Z,13.93
2022-08-25T05:42:04.453Z,14.17
2022-08-25T05:44:34.065Z,14.43
2022-08-25T05:47:03.069Z,14.47
2022-08-25T05:49:32.345Z,14.20
2022-08-25T05:52:01.324Z,14.93
2022-08-25T05:54:31.656Z,15.13
2022-08-25T05:57:01.214Z,14.70
2022-08-25T05:59:32.753Z,14.80
2022-08-25T06:02:20.485Z,15.33
2022-08-25T06:04:49.886Z,15.30
2022-08-25T06:07:18.994Z,14.63
2022-08-25T06:09:49.915Z,15.27
2022-08-25T06:12:21.271Z,15.77
2022-08-25T06:14:53.025Z,14.83
2022-08-25T06:17:24.191Z,16.30
2022-08-25T06:19:55.008Z,15.77
2022-08-25T06:22:25.444Z,15.60
2022-08-25T06:24:54.964Z,15.10
2022-08-25T06:27:26.435Z,14.13
2022-08-25T06:29:56.817Z,15.90
2022-08-25T06:32:32.145Z,15.37
2022-08-25T06:35:01.722Z,14.93
2022-08-25T06:37:30.957Z,14.80
2022-08-25T06:40:00.629Z,14.83
2022-08-25T06:42:30.058Z,14.93
2022-08-25T06:45:00.580Z,15.97
2022-08-25T06:47:30.098Z,16.20
2022-08-25T06:49:59.358Z,14.17
2022-08-25T06:52:29.442Z,14.80
2022-08-25T06:54:59.182Z,14.80
2022-08-25T06:57:28.573Z,14.57
2022-08-25T06:59:57.767Z,14.93
2022-08-25T07:02:29.163Z,14.37
2022-08-25T07:04:58.865Z,14.80
2022-08-25T07:07:27.921Z,14.03
2022-08-25T07:10:16.073Z,13.20
2022-08-25T07:12:49.410Z,13.97
2022-08-25T07:15:20.709Z,13.77
2022-08-25T07:17:51.668Z,13.90
2022-08-25T07:20:20.961Z,13.57
2022-08-25T07:22:50.840Z,13.93
2022-08-25T07:25:20.692Z,13.17
2022-08-25T07:27:49.749Z,14.97
2022-08-25T07:30:19.076Z,14.00
2022-08-25T07:32:54.942Z,13.03
2022-08-25T07:35:26.362Z,12.03
2022-08-25T07:37:57.901Z,12.40
2022-08-25T07:40:29.882Z,13.10
2022-08-25T07:43:01.579Z,14.10
2022-08-25T07:45:32.575Z,12.13
2022-08-25T07:48:06.427Z,13.20
2022-08-25T07:50:38.829Z,13.07
2022-08-25T07:53:08.230Z,12.67
2022-08-25T07:55:38.204Z,12.70
2022-08-25T07:58:09.129Z,11.67
2022-08-25T08:00:42.385Z,12.67
2022-08-25T08:03:29.450Z,12.60
2022-08-25T08:06:08.103Z,11.57
2022-08-25T08:08:38.734Z,11.47
2022-08-25T08:11:15.789Z,11.23
2022-08-25T08:13:46.589Z,11.73
2022-08-25T08:16:18.207Z,11.47
2022-08-25T08:18:49.255Z,11.70
2022-08-25T08:21:21.762Z,11.47
2022-08-25T08:23:56.649Z,11.53
2022-08-25T08:26:48.318Z,10.60
2022-08-25T08:29:20.138Z,10.47
2022-08-25T08:31:51.739Z,9.43
2022-08-25T08:34:24.980Z,9.30
2022-08-25T08:36:55.228Z,9.30
2022-08-25T08:39:25.156Z,9.33
2022-08-25T08:42:19.801Z,9.60
2022-08-25T08:45:09.476Z,8.40
2022-08-25T08:47:52.887Z,9.03
2022-08-25T08:50:33.135Z,9.43
2022-08-25T08:53:10.261Z,9.27
2022-08-25T08:55:42.694Z,9.00
2022-08-25T08:58:17.931Z,8.07
2022-08-25T09:00:52.351Z,9.10
2022-08-25T09:03:30.636Z,8.30
2022-08-25T09:06:04.809Z,7.13
2022-08-25T09:08:37.478Z,7.60
2022-08-25T09:11:16.339Z,7.50
2022-08-25T09:14:04.587Z,7.20
2022-08-25T09:16:57.907Z,7.97
2022-08-25T09:19:53.897Z,7.00
2022-08-25T09:22:36.919Z,7.40
2022-08-25T09:25:21.924Z,7.20
2022-08-25T09:28:08.135Z,7.03
2022-08-25T09:30:46.940Z,6.80
2022-08-25T09:33:21.043Z,7.27
2022-08-25T09:35:53.596Z,6.60
2022-08-25T09:38:26.137Z,6.87
2022-08-25T09:40:58.293Z,7.00
2022-08-25T09:43:35.076Z,6.47
2022-08-25T09:46:10.685Z,5.93
2022-08-25T09:48:48.419Z,6.63
2022-08-25T09:51:29.393Z,6.90
2022-08-25T09:54:21.019Z,5.93
2022-08-25T09:56:56.965Z,6.77
2022-08-25T09:59:34.095Z,6.87
2022-08-25T10:02:21.349Z,6.40
2022-08-25T10:04:51.081Z,6.27
2022-08-25T10:07:25.831Z,6.60
2022-08-25T10:09:59.844Z,6.50
2022-08-25T10:12:34.140Z,6.27
2022-08-25T10:15:29.466Z,6.50
2022-08-25T10:18:26.193Z,6.60
2022-08-25T10:21:07.614Z,6.20
2022-08-25T10:23:40.627Z,6.20
2022-08-25T10:26:21.322Z,6.20
2022-08-25T10:29:04.842Z,6.00
2022-08-25T10:31:37.935Z,5.57
2022-08-25T10:34:26.377Z,5.60
2022-08-25T10:37:06.381Z,5.83
2022-08-25T10:39:42.468Z,5.23
2022-08-25T10:42:33.231Z,5.60
2022-08-25T10:45:34.655Z,6.20
2022-08-25T10:48:24.326Z,6.27
2022-08-25T10:51:00.897Z,5.40
2022-08-25T10:53:41.486Z,5.80
2022-08-25T10:56:17.255Z,5.13
2022-08-25T10:59:20.933Z,5.17
2022-08-25T11:02:25.368Z,5.30
2022-08-25T11:05:01.647Z,5.50
2022-08-25T11:07:35.368Z,5.10
2022-08-25T11:10:11.730Z,5.50
2022-08-25T11:12:45.392Z,5.40
2022-08-25T11:15:23.122Z,5.00
2022-08-25T11:17:57.923Z,4.90
2022-08-25T11:20:33.581Z,5.40
2022-08-25T11:23:11.717Z,5.13
2022-08-25T11:25:46.178Z,5.10
2022-08-25T11:28:25.055Z,5.10
2022-08-25T11:30:58.666Z,5.60
2022-08-25T11:33:31.359Z,5.60
2022-08-25T11:36:04.436Z,4.13
2022-08-25T11:38:49.523Z,5.50
2022-08-25T11:41:33.100Z,4.60
2022-08-25T11:44:21.482Z,4.87
2022-08-25T11:47:21.448Z,5.13
2022-08-25T11:49:56.765Z,5.30
2022-08-25T11:52:49.840Z,5.00
2022-08-25T11:55:23.419Z,5.07
2022-08-25T11:57:55.304Z,4.87
2022-08-25T12:00:41.476Z,4.73
2022-08-25T12:04:03.227Z,4.43
2022-08-25T12:06:36.519Z,4.40
2022-08-25T12:09:21.710Z,4.40
2022-08-25T12:11:56.314Z,4.60
2022-08-25T12:14:44.018Z,4.93
2022-08-25T12:17:24.338Z,4.07
2022-08-25T12:19:59.377Z,4.80
2022-08-25T12:22:55.959Z,4.17
2022-08-25T12:25:49.835Z,4.43
2022-08-25T12:28:46.072Z,4.90
2022-08-25T12:31:33.215Z,3.83
2022-08-25T12:34:16.519Z,5.10
2022-08-25T12:36:59.292Z,4.53
2022-08-25T12:39:35.138Z,4.73
2022-08-25T12:42:08.689Z,4.50
2022-08-25T12:44:47.040Z,5.10
2022-08-25T12:47:34.732Z,4.27
2022-08-25T12:50:33.345Z,4.57
2022-08-25T12:53:15.299Z,4.93
2022-08-25T12:55:51.630Z,4.57
2022-08-25T12:58:20.671Z,4.67
2022-08-25T13:01:09.158Z,5.17
2022-08-25T13:03:58.527Z,5.30
2022-08-25T13:06:58.573Z,5.10
2022-08-25T13:10:22.122Z,5.50
2022-08-25T13:13:02.078Z,5.53
2022-08-25T13:15:39.712Z,5.77
2022-08-25T13:18:22.523Z,5.63
2022-08-25T13:20:56.067Z,5.87
2022-08-25T13:23:29.426Z,5.40
2022-08-25T13:25:59.835Z,5.63
2022-08-25T13:28:34.649Z,5.83
2022-08-25T13:31:08.630Z,5.30
2022-08-25T13:33:38.850Z,5.67
2022-08-25T13:36:35.223Z,5.50
2022-08-25T13:39:15.346Z,5.67
2022-08-25T13:41:55.354Z,5.53
2022-08-25T13:44:28.790Z,4.80
2022-08-25T13:47:08.915Z,5.27
2022-08-25T13:49:40.495Z,5.30
2022-08-25T13:52:20.144Z,4.70
2022-08-25T13:55:00.677Z,4.87
2022-08-25T13:57:34.808Z,4.60
2022-08-25T14:00:11.683Z,4.57
2022-08-25T14:02:44.672Z,4.50
2022-08-25T14:05:17.391Z,5.00
2022-08-25T14:08:09.061Z,4.97
2022-08-25T14:10:49.655Z,5.23
2022-08-25T14:13:32.898Z,4.63
2022-08-25T14:16:12.973Z,4.30
2022-08-25T14:18:49.342Z,4.27
2022-08-25T14:21:28.097Z,4.33
2022-08-25T14:23:58.091Z,4.60
2022-08-25T14:26:29.075Z,4.87
2022-08-25T14:28:59.699Z,4.47
2022-08-25T14:31:33.406Z,4.30
2022-08-25T14:34:08.869Z,4.50
2022-08-25T14:36:42.947Z,3.80
2022-08-25T14:39:15.488Z,4.03
2022-08-25T14:41:47.506Z,5.00
2022-08-25T14:44:22.903Z,4.60
2022-08-25T14:46:56.152Z,4.20
2022-08-25T14:49:33.979Z,4.30
2022-08-25T14:52:09.285Z,3.83
2022-08-25T14:54:38.498Z,4.50
2022-08-25T14:57:08.220Z,4.30
2022-08-25T14:59:43.132Z,5.00
2022-08-25T15:02:19.970Z,4.10
2022-08-25T15:04:54.449Z,3.97
2022-08-25T15:07:42.831Z,3.90
2022-08-25T15:10:13.512Z,3.70
2022-08-25T15:12:48.106Z,4.20
2022-08-25T15:15:20.777Z,3.93
2022-08-25T15:17:51.735Z,4.40
2022-08-25T15:20:21.247Z,4.03
2022-08-25T15:22:50.414Z,4.93
2022-08-25T15:25:20.974Z,5.23
2022-08-25T15:27:50.225Z,4.67
2022-08-25T15:30:30.756Z,3.80
2022-08-25T15:33:02.400Z,4.30
2022-08-25T15:35:31.599Z,4.50
2022-08-25T15:38:00.938Z,4.20
2022-08-25T15:40:30.532Z,4.37
2022-08-25T15:43:01.778Z,3.87
2022-08-25T15:45:33.335Z,4.67
2022-08-25T15:48:06.937Z,4.50
2022-08-25T15:50:38.828Z,4.30
2022-08-25T15:53:10.531Z,3.90
2022-08-25T15:55:41.307Z,4.13
2022-08-25T15:58:10.390Z,4.30
2022-08-25T16:00:39.983Z,3.77
2022-08-25T16:03:13.019Z,4.20
2022-08-25T16:05:47.890Z,4.10
2022-08-25T16:08:19.707Z,3.90
2022-08-25T16:10:49.708Z,4.00
2022-08-25T16:13:19.211Z,4.20
2022-08-25T16:15:54.064Z,4.13
2022-08-25T16:18:25.983Z,3.83
2022-08-25T16:20:56.825Z,4.10
2022-08-25T16:23:27.397Z,3.73
2022-08-25T16:25:57.030Z,3.73
2022-08-25T16:28:27.100Z,4.40
2022-08-25T16:30:56.572Z,4.37
2022-08-25T16:33:27.151Z,4.00
2022-08-25T16:36:06.835Z,4.60
2022-08-25T16:38:36.603Z,5.33
2022-08-25T16:41:08.897Z,5.50
2022-08-25T16:43:38.736Z,4.80
2022-08-25T16:46:12.468Z,4.57
2022-08-25T16:48:44.215Z,5.00
2022-08-25T16:51:15.120Z,4.60
2022-08-25T16:54:02.147Z,4.70
2022-08-25T16:56:31.575Z,5.30
2022-08-25T16:59:02.711Z,4.80
2022-08-25T17:01:35.467Z,4.67
2022-08-25T17:04:06.599Z,4.40
2022-08-25T17:06:38.183Z,4.37
2022-08-25T17:09:09.848Z,4.80
2022-08-25T17:11:45.354Z,4.67
2022-08-25T17:14:18.750Z,4.60
2022-08-25T17:16:51.086Z,4.67
2022-08-25T17:19:23.715Z,4.60
2022-08-25T17:21:54.815Z,4.63
2022-08-25T17:24:29.192Z,4.63
2022-08-25T17:27:01.568Z,4.43
2022-08-25T17:29:31.033Z,4.30
2022-08-25T17:32:00.238Z,4.43
2022-08-25T17:34:30.822Z,5.23
2022-08-25T17:37:02.242Z,4.97
2022-08-25T17:39:31.983Z,5.00
2022-08-25T17:42:01.485Z,4.87
2022-08-25T17:44:31.243Z,5.30
2022-08-25T17:47:00.830Z,4.83
2022-08-25T17:49:31.297Z,4.97
2022-08-25T17:52:00.227Z,5.07
2022-08-25T17:54:29.249Z,5.37
2022-08-25T17:56:58.478Z,5.10
2022-08-25T17:59:32.463Z,5.13
2022-08-25T18:02:02.076Z,5.03
2022-08-25T18:04:32.358Z,5.27
2022-08-25T18:07:01.228Z,5.50
2022-08-25T18:09:30.348Z,5.60
2022-08-25T18:12:00.080Z,5.20
2022-08-25T18:14:29.474Z,5.67
2022-08-25T18:17:00.109Z,5.13
2022-08-25T18:19:29.413Z,6.20
2022-08-25T18:22:04.189Z,5.83
2022-08-25T18:24:35.277Z,5.93
2022-08-25T18:27:04.908Z,6.20
2022-08-25T18:29:35.740Z,6.07
2022-08-25T18:32:05.610Z,6.50
2022-08-25T18:34:36.310Z,6.87
2022-08-25T18:37:21.003Z,6.47
2022-08-25T18:40:08.630Z,6.13
2022-08-25T18:42:38.211Z,6.10
2022-08-25T18:45:08.971Z,6.73
2022-08-25T18:47:41.913Z,6.70
2022-08-25T18:50:11.816Z,7.00
2022-08-25T18:52:43.634Z,6.47
2022-08-25T18:55:13.216Z,6.70
2022-08-25T18:57:43.780Z,7.00
2022-08-25T19:00:16.474Z,7.40
2022-08-25T19:02:47.274Z,6.63
2022-08-25T19:05:18.573Z,6.93
2022-08-25T19:07:50.388Z,7.23
2022-08-25T19:10:24.022Z,7.20
2022-08-25T19:12:55.539Z,6.83
2022-08-25T19:15:27.744Z,7.50
2022-08-25T19:17:58.680Z,7.07
2022-08-25T19:20:29.573Z,7.17
2022-08-25T19:22:59.883Z,7.70
2022-08-25T19:25:33.049Z,7.60
2022-08-25T19:28:02.716Z,7.40
2022-08-25T19:30:34.149Z,7.50
2022-08-25T19:33:03.748Z,7.20
2022-08-25T19:35:52.793Z,7.73
2022-08-25T19:38:35.357Z,8.27
2022-08-25T19:41:10.611Z,7.53
2022-08-25T19:43:50.535Z,7.50
2022-08-25T19:46:33.082Z,8.00
2022-08-25T19:49:09.383Z,7.80
2022-08-25T19:51:40.315Z,8.27
2022-08-25T19:54:12.057Z,7.77
2022-08-25T19:56:43.606Z,7.87
2022-08-25T19:59:24.673Z,8.03
2022-08-25T20:01:54.577Z,8.37
2022-08-25T20:04:24.166Z,8.13
2022-08-25T20:06:55.471Z,8.57
2022-08-25T20:09:39.597Z,7.90
2022-08-25T20:12:11.775Z,8.20
2022-08-25T20:14:41.441Z,8.43
2022-08-25T20:17:14.617Z,8.67
2022-08-25T20:19:55.491Z,8.90
2022-08-25T20:22:28.189Z,7.83
2022-08-25T20:25:01.130Z,8.80
2022-08-25T20:27:35.183Z,8.00
2022-08-25T20:30:07.776Z,8.30
2022-08-25T20:32:36.956Z,8.83
2022-08-25T20:35:09.301Z,8.00
2022-08-25T20:37:43.872Z,8.63
2022-08-25T20:40:16.419Z,8.97
2022-08-25T20:42:46.683Z,8.17
2022-08-25T20:45:18.238Z,8.77
2022-08-25T20:47:47.229Z,8.97
2022-08-25T20:50:16.869Z,8.80
2022-08-25T20:52:46.272Z,8.53
2022-08-25T20:55:19.502Z,8.47
2022-08-25T20:57:49.317Z,9.17
2022-08-25T21:00:23.594Z,8.83
2022-08-25T21:02:55.018Z,9.53
2022-08-25T21:05:25.000Z,8.50
2022-08-25T21:07:54.402Z,8.40
2022-08-25T21:10:25.454Z,8.60
2022-08-25T21:12:54.705Z,8.93
2022-08-25T21:15:24.111Z,9.00
2022-08-25T21:17:54.670Z,8.80
2022-08-25T21:20:25.039Z,9.10
2022-08-25T21:22:55.348Z,8.43
2022-08-25T21:25:27.674Z,8.83
2022-08-25T21:27:56.859Z,8.57
2022-08-25T21:30:26.528Z,9.13
2022-08-25T21:32:57.576Z,8.97
2022-08-25T21:35:27.591Z,9.23
2022-08-25T21:37:58.327Z,8.93
2022-08-25T21:40:28.909Z,8.70
2022-08-25T21:42:58.235Z,9.00
2022-08-25T21:45:27.778Z,9.43
2022-08-25T21:48:05.789Z,8.93
2022-08-25T21:50:35.018Z,9.73
2022-08-25T21:53:04.195Z,9.37
2022-08-25T21:55:39.292Z,9.53
2022-08-25T21:58:11.857Z,9.30
2022-08-25T22:00:41.098Z,8.90
2022-08-25T22:03:10.302Z,9.50
2022-08-25T22:05:40.566Z,9.20
2022-08-25T22:08:10.340Z,8.93
2022-08-25T22:10:45.534Z,9.63
2022-08-25T22:13:14.742Z,9.33
2022-08-25T22:15:44.356Z,9.40
2022-08-25T22:18:13.575Z,9.23
2022-08-25T22:20:42.891Z,9.10
2022-08-25T22:23:20.190Z,9.10
2022-08-25T22:25:51.576Z,9.43
2022-08-25T22:28:20.706Z,9.03
2022-08-25T22:30:51.828Z,9.10
2022-08-25T22:33:21.183Z,9.63
2022-08-25T22:35:54.260Z,9.47
2022-08-25T22:38:29.195Z,9.50
2022-08-25T22:41:03.863Z,9.63
2022-08-25T22:43:33.288Z,9.50
2022-08-25T22:46:03.684Z,9.37
2022-08-25T22:48:33.604Z,9.80
2022-08-25T22:51:06.256Z,10.20
2022-08-25T22:53:37.239Z,9.70
2022-08-25T22:56:08.901Z,10.70
2022-08-25T22:58:39.866Z,10.23
2022-08-25T23:01:14.368Z,10.37
2022-08-25T23:03:46.056Z,9.37
2022-08-25T23:06:24.481Z,9.90
2022-08-25T23:08:55.468Z,9.80
2022-08-25T23:11:27.077Z,10.10
2022-08-25T23:14:02.163Z,10.07
2022-08-25T23:16:32.553Z,9.63
2022-08-25T23:19:02.578Z,10.00
2022-08-25T23:21:49.255Z,9.80
2022-08-25T23:24:27.098Z,10.40
2022-08-25T23:27:02.277Z,9.90
2022-08-25T23:29:34.118Z,9.90
2022-08-25T23:32:07.178Z,10.30
2022-08-25T23:34:37.364Z,10.17
2022-08-25T23:37:09.080Z,9.73
2022-08-25T23:39:40.870Z,10.53
2022-08-25T23:42:11.393Z,10.47
2022-08-25T23:44:41.190Z,9.87
2022-08-25T23:47:12.053Z,9.90
2022-08-25T23:49:41.416Z,10.47
2022-08-25T23:52:10.579Z,10.27
2022-08-25T23:54:40.406Z,11.10
2022-08-25T23:57:11.174Z,10.67
2022-08-25T23:59:40.812Z,10.63
